sensor_id;sensor_type;location;lat;lon;timestamp;temperature;humidity
28747;DHT22;15903;49.008;8.394;2023-07-20T00:01:27;23.60;61.60
28747;DHT22;15903;49.008;8.394;2023-07-20T00:03:53;23.60;62.10
28747;DHT22;15903;49.008;8.394;2023-07-20T00:06:21;23.50;61.50
28747;DHT22;15903;49.008;8.394;2023-07-20T00:08:47;23.50;61.70
28747;DHT22;15903;49.008;8.394;2023-07-20T00:11:13;23.40;62.50
28747;DHT22;15903;49.008;8.394;2023-07-20T00:13:39;23.40;61.60
28747;DHT22;15903;49.008;8.394;2023-07-20T00:16:04;23.30;61.20
28747;DHT22;15903;49.008;8.394;2023-07-20T00:18:30;23.20;61.50
28747;DHT22;15903;49.008;8.394;2023-07-20T00:20:55;23.20;61.70
28747;DHT22;15903;49.008;8.394;2023-07-20T00:23:21;23.10;62.10
28747;DHT22;15903;49.008;8.394;2023-07-20T00:25:48;23.00;62.40
28747;DHT22;15903;49.008;8.394;2023-07-20T00:28:14;23.00;63.30
28747;DHT22;15903;49.008;8.394;2023-07-20T00:30:39;22.90;62.90
28747;DHT22;15903;49.008;8.394;2023-07-20T00:33:05;22.90;63.70
28747;DHT22;15903;49.008;8.394;2023-07-20T00:35:30;22.80;63.50
28747;DHT22;15903;49.008;8.394;2023-07-20T00:37:56;22.80;63.90
28747;DHT22;15903;49.008;8.394;2023-07-20T00:40:21;22.80;64.50
28747;DHT22;15903;49.008;8.394;2023-07-20T00:42:46;22.70;64.20
28747;DHT22;15903;49.008;8.394;2023-07-20T00:45:12;22.70;64.00
28747;DHT22;15903;49.008;8.394;2023-07-20T00:47:37;22.70;64.50
28747;DHT22;15903;49.008;8.394;2023-07-20T00:50:03;22.70;64.60
28747;DHT22;15903;49.008;8.394;2023-07-20T00:52:29;22.70;64.60
28747;DHT22;15903;49.008;8.394;2023-07-20T00:54:55;22.70;65.60
28747;DHT22;15903;49.008;8.394;2023-07-20T00:57:21;22.70;65.70
28747;DHT22;15903;49.008;8.394;2023-07-20T00:59:48;22.70;66.40
28747;DHT22;15903;49.008;8.394;2023-07-20T01:02:14;22.60;66.50
28747;DHT22;15903;49.008;8.394;2023-07-20T01:04:39;22.60;66.70
28747;DHT22;15903;49.008;8.394;2023-07-20T01:14:27;22.50;67.00
28747;DHT22;15903;49.008;8.394;2023-07-20T01:16:53;22.50;67.30
28747;DHT22;15903;49.008;8.394;2023-07-20T01:19:18;22.50;67.40
28747;DHT22;15903;49.008;8.394;2023-07-20T01:22:02;22.50;67.20
28747;DHT22;15903;49.008;8.394;2023-07-20T01:24:39;22.40;67.50
28747;DHT22;15903;49.008;8.394;2023-07-20T01:27:22;22.40;68.10
28747;DHT22;15903;49.008;8.394;2023-07-20T01:32:35;22.30;68.50
28747;DHT22;15903;49.008;8.394;2023-07-20T01:35:02;22.30;68.90
28747;DHT22;15903;49.008;8.394;2023-07-20T01:37:27;22.20;68.30
28747;DHT22;15903;49.008;8.394;2023-07-20T01:39:55;22.20;68.90
28747;DHT22;15903;49.008;8.394;2023-07-20T01:42:21;22.20;69.00
28747;DHT22;15903;49.008;8.394;2023-07-20T01:44:47;22.20;68.70
28747;DHT22;15903;49.008;8.394;2023-07-20T01:47:12;22.20;68.50
28747;DHT22;15903;49.008;8.394;2023-07-20T01:49:38;22.20;68.90
28747;DHT22;15903;49.008;8.394;2023-07-20T01:52:03;22.20;68.00
28747;DHT22;15903;49.008;8.394;2023-07-20T01:54:29;22.30;68.20
28747;DHT22;15903;49.008;8.394;2023-07-20T01:56:54;22.30;68.50
28747;DHT22;15903;49.008;8.394;2023-07-20T01:59:20;22.30;68.60
28747;DHT22;15903;49.008;8.394;2023-07-20T02:01:45;22.30;68.60
28747;DHT22;15903;49.008;8.394;2023-07-20T02:04:11;22.30;68.40
28747;DHT22;15903;49.008;8.394;2023-07-20T02:06:36;22.20;68.30
28747;DHT22;15903;49.008;8.394;2023-07-20T02:09:02;22.20;68.80
28747;DHT22;15903;49.008;8.394;2023-07-20T02:11:27;22.20;68.80
28747;DHT22;15903;49.008;8.394;2023-07-20T02:13:53;22.20;69.60
28747;DHT22;15903;49.008;8.394;2023-07-20T02:16:18;22.10;69.90
28747;DHT22;15903;49.008;8.394;2023-07-20T02:18:43;22.10;69.90
28747;DHT22;15903;49.008;8.394;2023-07-20T02:21:09;22.10;69.50
28747;DHT22;15903;49.008;8.394;2023-07-20T02:23:34;22.00;69.90
28747;DHT22;15903;49.008;8.394;2023-07-20T02:26:00;22.00;69.10
28747;DHT22;15903;49.008;8.394;2023-07-20T02:28:25;22.00;69.70
28747;DHT22;15903;49.008;8.394;2023-07-20T02:30:51;21.90;70.00
28747;DHT22;15903;49.008;8.394;2023-07-20T02:33:16;21.90;70.60
28747;DHT22;15903;49.008;8.394;2023-07-20T02:35:42;21.90;70.60
28747;DHT22;15903;49.008;8.394;2023-07-20T02:38:07;21.90;71.10
28747;DHT22;15903;49.008;8.394;2023-07-20T02:40:33;21.80;71.50
28747;DHT22;15903;49.008;8.394;2023-07-20T02:42:58;21.70;71.70
28747;DHT22;15903;49.008;8.394;2023-07-20T02:45:24;21.70;71.70
28747;DHT22;15903;49.008;8.394;2023-07-20T02:47:49;21.70;72.00
28747;DHT22;15903;49.008;8.394;2023-07-20T02:50:15;21.70;71.40
28747;DHT22;15903;49.008;8.394;2023-07-20T02:52:40;21.70;71.60
28747;DHT22;15903;49.008;8.394;2023-07-20T02:55:06;21.70;72.20
28747;DHT22;15903;49.008;8.394;2023-07-20T02:57:31;21.60;72.00
28747;DHT22;15903;49.008;8.394;2023-07-20T02:59:57;21.60;72.90
28747;DHT22;15903;49.008;8.394;2023-07-20T03:02:22;21.60;72.60
28747;DHT22;15903;49.008;8.394;2023-07-20T03:04:48;21.60;72.40
28747;DHT22;15903;49.008;8.394;2023-07-20T03:07:13;21.60;72.90
28747;DHT22;15903;49.008;8.394;2023-07-20T03:09:39;21.50;72.60
28747;DHT22;15903;49.008;8.394;2023-07-20T03:12:05;21.50;72.50
28747;DHT22;15903;49.008;8.394;2023-07-20T03:14:31;21.50;72.00
28747;DHT22;15903;49.008;8.394;2023-07-20T03:16:56;21.40;71.40
28747;DHT22;15903;49.008;8.394;2023-07-20T03:19:22;21.40;71.70
28747;DHT22;15903;49.008;8.394;2023-07-20T03:21:47;21.30;71.60
28747;DHT22;15903;49.008;8.394;2023-07-20T03:24:13;21.30;71.90
28747;DHT22;15903;49.008;8.394;2023-07-20T03:26:38;21.40;72.90
28747;DHT22;15903;49.008;8.394;2023-07-20T03:29:04;21.40;72.70
28747;DHT22;15903;49.008;8.394;2023-07-20T03:31:30;21.30;72.70
28747;DHT22;15903;49.008;8.394;2023-07-20T03:33:55;21.30;73.30
28747;DHT22;15903;49.008;8.394;2023-07-20T03:36:21;21.30;73.70
28747;DHT22;15903;49.008;8.394;2023-07-20T03:38:46;21.20;73.80
28747;DHT22;15903;49.008;8.394;2023-07-20T03:41:12;21.20;73.90
28747;DHT22;15903;49.008;8.394;2023-07-20T03:43:37;21.20;74.50
28747;DHT22;15903;49.008;8.394;2023-07-20T03:46:03;21.10;74.50
28747;DHT22;15903;49.008;8.394;2023-07-20T03:48:32;21.10;74.80
28747;DHT22;15903;49.008;8.394;2023-07-20T03:50:58;21.10;74.70
28747;DHT22;15903;49.008;8.394;2023-07-20T03:53:24;21.10;75.00
28747;DHT22;15903;49.008;8.394;2023-07-20T03:55:49;21.10;75.30
28747;DHT22;15903;49.008;8.394;2023-07-20T03:58:15;21.00;75.30
28747;DHT22;15903;49.008;8.394;2023-07-20T04:00:45;21.00;75.60
28747;DHT22;15903;49.008;8.394;2023-07-20T04:03:11;21.10;76.40
28747;DHT22;15903;49.008;8.394;2023-07-20T04:05:36;21.10;76.30
28747;DHT22;15903;49.008;8.394;2023-07-20T04:08:01;21.10;75.90
28747;DHT22;15903;49.008;8.394;2023-07-20T04:10:27;21.10;76.10
28747;DHT22;15903;49.008;8.394;2023-07-20T04:12:52;21.10;76.20
28747;DHT22;15903;49.008;8.394;2023-07-20T04:15:18;21.10;76.30
28747;DHT22;15903;49.008;8.394;2023-07-20T04:17:44;21.10;76.70
28747;DHT22;15903;49.008;8.394;2023-07-20T04:20:10;21.20;76.50
28747;DHT22;15903;49.008;8.394;2023-07-20T04:22:35;21.10;76.60
28747;DHT22;15903;49.008;8.394;2023-07-20T04:25:01;21.20;76.60
28747;DHT22;15903;49.008;8.394;2023-07-20T04:27:26;21.10;76.50
28747;DHT22;15903;49.008;8.394;2023-07-20T04:29:52;21.20;77.00
28747;DHT22;15903;49.008;8.394;2023-07-20T04:32:17;21.00;77.90
28747;DHT22;15903;49.008;8.394;2023-07-20T04:34:43;21.00;77.70
28747;DHT22;15903;49.008;8.394;2023-07-20T04:37:08;21.00;78.60
28747;DHT22;15903;49.008;8.394;2023-07-20T04:39:34;21.00;78.40
28747;DHT22;15903;49.008;8.394;2023-07-20T04:41:59;21.00;77.90
28747;DHT22;15903;49.008;8.394;2023-07-20T04:44:25;21.10;77.60
28747;DHT22;15903;49.008;8.394;2023-07-20T04:46:50;21.10;77.40
28747;DHT22;15903;49.008;8.394;2023-07-20T04:49:16;21.10;77.50
28747;DHT22;15903;49.008;8.394;2023-07-20T04:51:41;21.10;78.30
28747;DHT22;15903;49.008;8.394;2023-07-20T04:54:07;21.10;78.90
28747;DHT22;15903;49.008;8.394;2023-07-20T04:56:32;21.00;78.70
28747;DHT22;15903;49.008;8.394;2023-07-20T04:58:58;21.00;78.30
28747;DHT22;15903;49.008;8.394;2023-07-20T05:01:24;21.10;78.40
28747;DHT22;15903;49.008;8.394;2023-07-20T05:03:49;21.10;78.30
28747;DHT22;15903;49.008;8.394;2023-07-20T05:06:15;21.10;78.50
28747;DHT22;15903;49.008;8.394;2023-07-20T05:08:40;21.10;78.30
28747;DHT22;15903;49.008;8.394;2023-07-20T05:11:06;21.10;78.10
28747;DHT22;15903;49.008;8.394;2023-07-20T05:13:32;21.10;77.60
28747;DHT22;15903;49.008;8.394;2023-07-20T05:15:58;21.20;77.10
28747;DHT22;15903;49.008;8.394;2023-07-20T05:18:23;21.30;76.80
28747;DHT22;15903;49.008;8.394;2023-07-20T05:20:49;21.30;77.00
28747;DHT22;15903;49.008;8.394;2023-07-20T05:23:18;21.30;77.30
28747;DHT22;15903;49.008;8.394;2023-07-20T05:25:45;21.30;77.20
28747;DHT22;15903;49.008;8.394;2023-07-20T05:28:10;21.20;77.70
28747;DHT22;15903;49.008;8.394;2023-07-20T05:30:36;21.30;78.40
28747;DHT22;15903;49.008;8.394;2023-07-20T05:33:01;21.30;78.50
28747;DHT22;15903;49.008;8.394;2023-07-20T05:35:27;21.40;78.70
28747;DHT22;15903;49.008;8.394;2023-07-20T05:37:52;21.50;78.60
28747;DHT22;15903;49.008;8.394;2023-07-20T05:40:18;21.40;79.20
28747;DHT22;15903;49.008;8.394;2023-07-20T05:42:45;21.40;79.60
28747;DHT22;15903;49.008;8.394;2023-07-20T05:45:11;21.20;79.60
28747;DHT22;15903;49.008;8.394;2023-07-20T05:47:36;21.30;79.80
28747;DHT22;15903;49.008;8.394;2023-07-20T05:50:02;21.30;80.20
28747;DHT22;15903;49.008;8.394;2023-07-20T05:52:28;21.30;80.50
28747;DHT22;15903;49.008;8.394;2023-07-20T05:54:54;21.40;80.30
28747;DHT22;15903;49.008;8.394;2023-07-20T05:57:20;21.40;80.50
28747;DHT22;15903;49.008;8.394;2023-07-20T05:59:46;21.40;80.90
28747;DHT22;15903;49.008;8.394;2023-07-20T06:02:11;21.40;81.00
28747;DHT22;15903;49.008;8.394;2023-07-20T06:04:38;21.40;81.20
28747;DHT22;15903;49.008;8.394;2023-07-20T06:07:03;21.40;81.40
28747;DHT22;15903;49.008;8.394;2023-07-20T06:09:29;21.50;81.30
28747;DHT22;15903;49.008;8.394;2023-07-20T06:11:54;21.50;81.50
28747;DHT22;15903;49.008;8.394;2023-07-20T06:14:20;21.40;81.70
28747;DHT22;15903;49.008;8.394;2023-07-20T06:16:45;21.40;82.10
28747;DHT22;15903;49.008;8.394;2023-07-20T06:19:10;21.50;81.20
28747;DHT22;15903;49.008;8.394;2023-07-20T06:21:37;21.50;81.30
28747;DHT22;15903;49.008;8.394;2023-07-20T06:24:03;21.50;81.40
28747;DHT22;15903;49.008;8.394;2023-07-20T06:26:28;21.50;81.70
28747;DHT22;15903;49.008;8.394;2023-07-20T06:28:55;21.50;81.60
28747;DHT22;15903;49.008;8.394;2023-07-20T06:31:21;21.60;81.10
28747;DHT22;15903;49.008;8.394;2023-07-20T06:33:46;21.50;81.00
28747;DHT22;15903;49.008;8.394;2023-07-20T06:36:12;21.50;81.40
28747;DHT22;15903;49.008;8.394;2023-07-20T06:38:37;21.50;80.50
28747;DHT22;15903;49.008;8.394;2023-07-20T06:41:03;21.50;79.60
28747;DHT22;15903;49.008;8.394;2023-07-20T06:43:29;21.50;80.00
28747;DHT22;15903;49.008;8.394;2023-07-20T06:45:54;21.50;80.10
28747;DHT22;15903;49.008;8.394;2023-07-20T06:48:20;21.70;80.50
28747;DHT22;15903;49.008;8.394;2023-07-20T06:50:45;21.80;79.40
28747;DHT22;15903;49.008;8.394;2023-07-20T06:53:11;21.90;79.60
28747;DHT22;15903;49.008;8.394;2023-07-20T06:55:36;21.90;79.20
28747;DHT22;15903;49.008;8.394;2023-07-20T06:58:02;21.90;79.60
28747;DHT22;15903;49.008;8.394;2023-07-20T07:00:28;22.00;79.00
28747;DHT22;15903;49.008;8.394;2023-07-20T07:02:53;22.10;78.40
28747;DHT22;15903;49.008;8.394;2023-07-20T07:05:19;22.00;78.70
28747;DHT22;15903;49.008;8.394;2023-07-20T07:07:44;22.00;78.00
28747;DHT22;15903;49.008;8.394;2023-07-20T07:10:10;22.10;77.70
28747;DHT22;15903;49.008;8.394;2023-07-20T07:12:35;22.00;78.00
28747;DHT22;15903;49.008;8.394;2023-07-20T07:15:02;22.10;77.50
28747;DHT22;15903;49.008;8.394;2023-07-20T07:17:27;22.20;77.20
28747;DHT22;15903;49.008;8.394;2023-07-20T07:19:53;22.10;77.50
28747;DHT22;15903;49.008;8.394;2023-07-20T07:22:21;22.20;77.50
28747;DHT22;15903;49.008;8.394;2023-07-20T07:24:47;22.20;77.30
28747;DHT22;15903;49.008;8.394;2023-07-20T07:27:12;22.40;77.10
28747;DHT22;15903;49.008;8.394;2023-07-20T07:29:38;22.60;77.20
28747;DHT22;15903;49.008;8.394;2023-07-20T07:32:03;22.80;76.60
28747;DHT22;15903;49.008;8.394;2023-07-20T07:34:29;22.90;75.60
28747;DHT22;15903;49.008;8.394;2023-07-20T07:36:54;23.00;75.60
28747;DHT22;15903;49.008;8.394;2023-07-20T07:39:20;23.00;74.90
28747;DHT22;15903;49.008;8.394;2023-07-20T07:41:45;23.00;74.00
28747;DHT22;15903;49.008;8.394;2023-07-20T07:44:11;23.00;75.00
28747;DHT22;15903;49.008;8.394;2023-07-20T07:46:36;23.10;75.30
28747;DHT22;15903;49.008;8.394;2023-07-20T07:49:02;23.30;74.00
28747;DHT22;15903;49.008;8.394;2023-07-20T07:51:28;23.20;72.90
28747;DHT22;15903;49.008;8.394;2023-07-20T07:53:53;23.30;73.60
28747;DHT22;15903;49.008;8.394;2023-07-20T07:56:19;23.50;73.80
28747;DHT22;15903;49.008;8.394;2023-07-20T07:58:48;23.70;72.10
28747;DHT22;15903;49.008;8.394;2023-07-20T08:01:14;23.90;70.50
28747;DHT22;15903;49.008;8.394;2023-07-20T08:03:40;24.00;70.70
28747;DHT22;15903;49.008;8.394;2023-07-20T08:06:05;24.10;70.30
28747;DHT22;15903;49.008;8.394;2023-07-20T08:08:31;24.10;70.60
28747;DHT22;15903;49.008;8.394;2023-07-20T08:10:57;24.10;69.90
28747;DHT22;15903;49.008;8.394;2023-07-20T08:13:23;24.00;69.90
28747;DHT22;15903;49.008;8.394;2023-07-20T08:15:49;24.10;70.30
28747;DHT22;15903;49.008;8.394;2023-07-20T08:18:15;24.30;69.80
28747;DHT22;15903;49.008;8.394;2023-07-20T08:20:43;24.50;68.50
28747;DHT22;15903;49.008;8.394;2023-07-20T08:23:08;24.40;68.40
28747;DHT22;15903;49.008;8.394;2023-07-20T08:25:36;24.40;68.90
28747;DHT22;15903;49.008;8.394;2023-07-20T08:28:01;24.60;68.80
28747;DHT22;15903;49.008;8.394;2023-07-20T08:30:37;24.50;68.80
28747;DHT22;15903;49.008;8.394;2023-07-20T08:33:04;24.50;68.30
28747;DHT22;15903;49.008;8.394;2023-07-20T08:35:29;24.60;68.10
28747;DHT22;15903;49.008;8.394;2023-07-20T08:37:55;24.40;67.70
28747;DHT22;15903;49.008;8.394;2023-07-20T08:40:20;24.20;69.20
28747;DHT22;15903;49.008;8.394;2023-07-20T08:42:46;24.00;67.70
28747;DHT22;15903;49.008;8.394;2023-07-20T08:45:11;23.90;67.20
28747;DHT22;15903;49.008;8.394;2023-07-20T08:47:38;23.90;66.90
28747;DHT22;15903;49.008;8.394;2023-07-20T08:50:04;24.10;65.20
28747;DHT22;15903;49.008;8.394;2023-07-20T08:52:32;24.30;64.10
28747;DHT22;15903;49.008;8.394;2023-07-20T08:54:59;24.40;63.30
28747;DHT22;15903;49.008;8.394;2023-07-20T08:57:28;24.50;64.40
28747;DHT22;15903;49.008;8.394;2023-07-20T08:59:54;24.60;64.20
28747;DHT22;15903;49.008;8.394;2023-07-20T09:02:19;24.70;62.90
28747;DHT22;15903;49.008;8.394;2023-07-20T09:04:46;24.80;62.80
28747;DHT22;15903;49.008;8.394;2023-07-20T09:07:12;24.90;62.90
28747;DHT22;15903;49.008;8.394;2023-07-20T09:09:39;25.00;62.90
28747;DHT22;15903;49.008;8.394;2023-07-20T09:12:05;25.00;61.70
28747;DHT22;15903;49.008;8.394;2023-07-20T09:14:30;24.90;62.00
28747;DHT22;15903;49.008;8.394;2023-07-20T09:16:57;24.90;60.90
28747;DHT22;15903;49.008;8.394;2023-07-20T09:19:22;25.00;60.10
28747;DHT22;15903;49.008;8.394;2023-07-20T09:21:48;25.10;60.90
28747;DHT22;15903;49.008;8.394;2023-07-20T09:24:14;25.30;60.00
28747;DHT22;15903;49.008;8.394;2023-07-20T09:26:44;25.30;60.00
28747;DHT22;15903;49.008;8.394;2023-07-20T09:29:10;25.40;60.00
28747;DHT22;15903;49.008;8.394;2023-07-20T09:31:36;25.60;58.80
28747;DHT22;15903;49.008;8.394;2023-07-20T09:34:01;25.70;59.10
28747;DHT22;15903;49.008;8.394;2023-07-20T09:36:28;25.90;58.50
28747;DHT22;15903;49.008;8.394;2023-07-20T09:38:53;25.80;57.90
28747;DHT22;15903;49.008;8.394;2023-07-20T09:41:20;25.70;58.60
28747;DHT22;15903;49.008;8.394;2023-07-20T09:43:46;25.70;58.50
28747;DHT22;15903;49.008;8.394;2023-07-20T09:46:12;25.60;58.60
28747;DHT22;15903;49.008;8.394;2023-07-20T09:48:37;25.40;58.20
28747;DHT22;15903;49.008;8.394;2023-07-20T09:51:03;25.30;59.00
28747;DHT22;15903;49.008;8.394;2023-07-20T09:53:29;25.50;59.10
28747;DHT22;15903;49.008;8.394;2023-07-20T09:55:55;25.70;58.80
28747;DHT22;15903;49.008;8.394;2023-07-20T09:58:21;26.10;58.50
28747;DHT22;15903;49.008;8.394;2023-07-20T10:00:46;26.30;56.90
28747;DHT22;15903;49.008;8.394;2023-07-20T10:03:27;26.10;56.50
28747;DHT22;15903;49.008;8.394;2023-07-20T10:05:57;26.30;57.10
28747;DHT22;15903;49.008;8.394;2023-07-20T10:08:24;26.60;56.00
28747;DHT22;15903;49.008;8.394;2023-07-20T10:10:50;26.50;55.30
28747;DHT22;15903;49.008;8.394;2023-07-20T10:13:21;26.10;56.40
28747;DHT22;15903;49.008;8.394;2023-07-20T10:15:50;26.00;56.40
28747;DHT22;15903;49.008;8.394;2023-07-20T10:20:48;26.50;57.60
28747;DHT22;15903;49.008;8.394;2023-07-20T10:23:15;26.60;56.50
28747;DHT22;15903;49.008;8.394;2023-07-20T10:25:41;26.70;56.00
28747;DHT22;15903;49.008;8.394;2023-07-20T10:28:08;26.70;55.80
28747;DHT22;15903;49.008;8.394;2023-07-20T10:30:35;26.70;55.20
28747;DHT22;15903;49.008;8.394;2023-07-20T10:33:02;26.80;55.60
28747;DHT22;15903;49.008;8.394;2023-07-20T10:35:28;26.90;55.80
28747;DHT22;15903;49.008;8.394;2023-07-20T10:37:54;27.00;57.40
28747;DHT22;15903;49.008;8.394;2023-07-20T10:40:29;27.20;54.80
28747;DHT22;15903;49.008;8.394;2023-07-20T10:42:59;27.30;55.90
28747;DHT22;15903;49.008;8.394;2023-07-20T10:48:12;27.80;56.50
28747;DHT22;15903;49.008;8.394;2023-07-20T10:50:38;27.70;53.30
28747;DHT22;15903;49.008;8.394;2023-07-20T10:53:09;27.70;53.70
28747;DHT22;15903;49.008;8.394;2023-07-20T10:55:35;27.90;53.20
28747;DHT22;15903;49.008;8.394;2023-07-20T10:58:06;28.00;51.80
28747;DHT22;15903;49.008;8.394;2023-07-20T11:00:31;27.90;53.20
28747;DHT22;15903;49.008;8.394;2023-07-20T11:02:58;27.90;53.20
28747;DHT22;15903;49.008;8.394;2023-07-20T11:05:34;27.70;52.80
28747;DHT22;15903;49.008;8.394;2023-07-20T11:08:03;27.70;53.80
28747;DHT22;15903;49.008;8.394;2023-07-20T11:10:29;27.90;53.90
28747;DHT22;15903;49.008;8.394;2023-07-20T11:15:46;28.40;54.00
28747;DHT22;15903;49.008;8.394;2023-07-20T11:18:12;28.30;52.10
28747;DHT22;15903;49.008;8.394;2023-07-20T11:20:38;28.40;51.90
28747;DHT22;15903;49.008;8.394;2023-07-20T11:23:04;28.40;50.80
28747;DHT22;15903;49.008;8.394;2023-07-20T11:25:36;28.40;50.50
28747;DHT22;15903;49.008;8.394;2023-07-20T11:28:02;28.30;51.80
28747;DHT22;15903;49.008;8.394;2023-07-20T11:30:32;28.40;52.10
28747;DHT22;15903;49.008;8.394;2023-07-20T11:32:58;28.40;51.70
28747;DHT22;15903;49.008;8.394;2023-07-20T11:35:23;28.50;53.20
28747;DHT22;15903;49.008;8.394;2023-07-20T11:37:49;28.50;52.10
28747;DHT22;15903;49.008;8.394;2023-07-20T11:40:14;28.50;50.60
28747;DHT22;15903;49.008;8.394;2023-07-20T11:42:40;28.40;50.90
28747;DHT22;15903;49.008;8.394;2023-07-20T11:45:06;28.40;51.70
28747;DHT22;15903;49.008;8.394;2023-07-20T11:47:32;28.50;51.20
28747;DHT22;15903;49.008;8.394;2023-07-20T11:50:02;28.60;50.40
28747;DHT22;15903;49.008;8.394;2023-07-20T11:52:28;28.30;49.70
28747;DHT22;15903;49.008;8.394;2023-07-20T11:54:53;28.20;51.20
28747;DHT22;15903;49.008;8.394;2023-07-20T11:57:19;28.30;50.50
28747;DHT22;15903;49.008;8.394;2023-07-20T11:59:54;28.30;49.10
28747;DHT22;15903;49.008;8.394;2023-07-20T12:02:22;28.50;51.70
28747;DHT22;15903;49.008;8.394;2023-07-20T12:04:50;28.70;51.60
28747;DHT22;15903;49.008;8.394;2023-07-20T12:07:15;28.70;51.10
28747;DHT22;15903;49.008;8.394;2023-07-20T12:09:41;28.70;50.90
28747;DHT22;15903;49.008;8.394;2023-07-20T12:12:10;28.70;49.40
28747;DHT22;15903;49.008;8.394;2023-07-20T12:14:38;28.80;49.80
28747;DHT22;15903;49.008;8.394;2023-07-20T12:17:03;28.90;50.20
28747;DHT22;15903;49.008;8.394;2023-07-20T12:19:29;29.20;50.30
28747;DHT22;15903;49.008;8.394;2023-07-20T12:21:57;29.50;51.30
28747;DHT22;15903;49.008;8.394;2023-07-20T12:24:24;29.80;49.20
28747;DHT22;15903;49.008;8.394;2023-07-20T12:26:55;29.50;47.70
28747;DHT22;15903;49.008;8.394;2023-07-20T12:29:21;29.10;47.50
28747;DHT22;15903;49.008;8.394;2023-07-20T12:31:46;29.10;47.80
28747;DHT22;15903;49.008;8.394;2023-07-20T12:34:12;29.10;47.30
28747;DHT22;15903;49.008;8.394;2023-07-20T12:36:38;28.60;47.50
28747;DHT22;15903;49.008;8.394;2023-07-20T12:39:03;28.40;48.90
28747;DHT22;15903;49.008;8.394;2023-07-20T12:41:30;28.10;49.30
28747;DHT22;15903;49.008;8.394;2023-07-20T12:43:56;28.30;48.50
28747;DHT22;15903;49.008;8.394;2023-07-20T12:46:23;28.50;48.90
28747;DHT22;15903;49.008;8.394;2023-07-20T12:48:49;28.90;48.90
28747;DHT22;15903;49.008;8.394;2023-07-20T12:51:14;29.20;46.60
28747;DHT22;15903;49.008;8.394;2023-07-20T12:53:40;29.40;46.80
28747;DHT22;15903;49.008;8.394;2023-07-20T12:56:05;29.70;45.50
28747;DHT22;15903;49.008;8.394;2023-07-20T12:58:31;29.70;44.50
28747;DHT22;15903;49.008;8.394;2023-07-20T13:00:56;29.70;45.60
28747;DHT22;15903;49.008;8.394;2023-07-20T13:03:22;29.50;44.70
28747;DHT22;15903;49.008;8.394;2023-07-20T13:05:47;29.50;45.60
28747;DHT22;15903;49.008;8.394;2023-07-20T13:08:13;29.60;47.10
28747;DHT22;15903;49.008;8.394;2023-07-20T13:10:39;29.90;47.00
28747;DHT22;15903;49.008;8.394;2023-07-20T13:13:05;30.00;46.00
28747;DHT22;15903;49.008;8.394;2023-07-20T13:15:31;30.20;45.90
28747;DHT22;15903;49.008;8.394;2023-07-20T13:17:59;30.30;44.10
28747;DHT22;15903;49.008;8.394;2023-07-20T13:20:25;30.50;45.90
28747;DHT22;15903;49.008;8.394;2023-07-20T13:22:51;30.80;46.10
28747;DHT22;15903;49.008;8.394;2023-07-20T13:25:17;30.90;45.70
28747;DHT22;15903;49.008;8.394;2023-07-20T13:27:43;31.00;46.20
28747;DHT22;15903;49.008;8.394;2023-07-20T13:30:08;30.90;43.20
28747;DHT22;15903;49.008;8.394;2023-07-20T13:32:38;30.80;43.60
28747;DHT22;15903;49.008;8.394;2023-07-20T13:35:04;31.10;44.20
28747;DHT22;15903;49.008;8.394;2023-07-20T13:37:29;31.30;44.80
28747;DHT22;15903;49.008;8.394;2023-07-20T13:39:55;31.00;42.90
28747;DHT22;15903;49.008;8.394;2023-07-20T13:42:20;31.10;44.30
28747;DHT22;15903;49.008;8.394;2023-07-20T13:44:47;31.20;45.50
28747;DHT22;15903;49.008;8.394;2023-07-20T13:47:13;31.20;44.30
28747;DHT22;15903;49.008;8.394;2023-07-20T13:49:38;31.10;42.50
28747;DHT22;15903;49.008;8.394;2023-07-20T13:52:04;31.20;42.70
28747;DHT22;15903;49.008;8.394;2023-07-20T13:54:30;31.20;41.80
28747;DHT22;15903;49.008;8.394;2023-07-20T13:56:56;30.50;42.40
28747;DHT22;15903;49.008;8.394;2023-07-20T13:59:22;29.80;42.40
28747;DHT22;15903;49.008;8.394;2023-07-20T14:01:48;29.40;43.50
28747;DHT22;15903;49.008;8.394;2023-07-20T14:04:14;29.30;44.40
28747;DHT22;15903;49.008;8.394;2023-07-20T14:06:40;29.50;45.80
28747;DHT22;15903;49.008;8.394;2023-07-20T14:09:06;29.90;44.20
28747;DHT22;15903;49.008;8.394;2023-07-20T14:11:31;30.30;42.70
28747;DHT22;15903;49.008;8.394;2023-07-20T14:13:57;30.60;44.10
28747;DHT22;15903;49.008;8.394;2023-07-20T14:16:23;31.10;44.40
28747;DHT22;15903;49.008;8.394;2023-07-20T14:18:49;31.00;42.80
28747;DHT22;15903;49.008;8.394;2023-07-20T14:21:16;31.00;43.90
28747;DHT22;15903;49.008;8.394;2023-07-20T14:23:42;31.30;40.70
28747;DHT22;15903;49.008;8.394;2023-07-20T14:26:07;31.20;40.30
28747;DHT22;15903;49.008;8.394;2023-07-20T14:28:34;31.10;41.10
28747;DHT22;15903;49.008;8.394;2023-07-20T14:30:59;31.30;41.00
28747;DHT22;15903;49.008;8.394;2023-07-20T14:33:25;31.60;40.80
28747;DHT22;15903;49.008;8.394;2023-07-20T14:35:50;31.50;40.90
28747;DHT22;15903;49.008;8.394;2023-07-20T14:38:16;31.20;40.50
28747;DHT22;15903;49.008;8.394;2023-07-20T14:40:42;31.00;41.30
28747;DHT22;15903;49.008;8.394;2023-07-20T14:43:08;30.90;41.90
28747;DHT22;15903;49.008;8.394;2023-07-20T14:45:33;30.70;41.50
28747;DHT22;15903;49.008;8.394;2023-07-20T14:47:59;30.40;40.50
28747;DHT22;15903;49.008;8.394;2023-07-20T14:50:24;30.80;42.10
28747;DHT22;15903;49.008;8.394;2023-07-20T14:52:50;31.10;42.60
28747;DHT22;15903;49.008;8.394;2023-07-20T14:55:16;31.30;41.60
28747;DHT22;15903;49.008;8.394;2023-07-20T14:57:42;31.30;40.80
28747;DHT22;15903;49.008;8.394;2023-07-20T15:00:08;31.10;41.00
28747;DHT22;15903;49.008;8.394;2023-07-20T15:02:36;30.60;40.40
28747;DHT22;15903;49.008;8.394;2023-07-20T15:05:02;30.20;42.30
28747;DHT22;15903;49.008;8.394;2023-07-20T15:07:28;30.20;41.70
28747;DHT22;15903;49.008;8.394;2023-07-20T15:09:53;30.30;41.90
28747;DHT22;15903;49.008;8.394;2023-07-20T15:12:18;30.90;42.40
28747;DHT22;15903;49.008;8.394;2023-07-20T15:14:44;31.40;41.70
28747;DHT22;15903;49.008;8.394;2023-07-20T15:17:14;31.90;40.30
28747;DHT22;15903;49.008;8.394;2023-07-20T15:19:40;32.40;40.30
28747;DHT22;15903;49.008;8.394;2023-07-20T15:22:06;32.60;38.60
28747;DHT22;15903;49.008;8.394;2023-07-20T15:24:32;32.80;38.50
28747;DHT22;15903;49.008;8.394;2023-07-20T15:26:58;32.70;38.30
28747;DHT22;15903;49.008;8.394;2023-07-20T15:29:24;32.60;36.60
28747;DHT22;15903;49.008;8.394;2023-07-20T15:31:49;32.50;37.00
28747;DHT22;15903;49.008;8.394;2023-07-20T15:34:15;32.60;36.10
28747;DHT22;15903;49.008;8.394;2023-07-20T15:36:40;32.70;36.90
28747;DHT22;15903;49.008;8.394;2023-07-20T15:39:06;32.80;36.80
28747;DHT22;15903;49.008;8.394;2023-07-20T15:41:32;32.50;37.20